2TA4 weather

Mario's Flying Pizza Airport
Sealy, Texas, United States

Public forecast

Using degrees Fahrenheit for public forecast. Weather courtesy of forecast.io.

Closest aviation weather report (METAR) to Mario's Flying Pizza Airport

Closest report is Eagle Lake Airport, 9.0 nm (16.6 km) S. Retrieved 2020/08/05 15:35 UTC (19 minutes ago):

KELA 051535Z AUTO 22006KT 10SM SCT018 32/25 A3002 RMK AO2 T03160248

Closest aviation forecast (TAF) to Mario's Flying Pizza Airport

Closest forecast is Sugar Land Regional Airport, 34.0 nm (63.0 km) ESE. Retrieved 2020/08/05 12:30 UTC (3 hours ago):

TAF KSGR 051128Z 0512/0612 VRB02KT 6SM BR SCT020 FM051500 21005KT P6SM SCT030 FM052100 18006KT P6SM VCSH SCT040 FM060100 18004KT P6SM BKN120